sensor_id;sensor_type;location;lat;lon;timestamp;P1;durP1;ratioP1;P2;durP2;ratioP2
33740;SDS011;20065;48.380;10.892;2022-12-20T00:01:10;40.15;;;22.95;;
33740;SDS011;20065;48.380;10.892;2022-12-20T00:03:59;39.95;;;22.58;;
33740;SDS011;20065;48.380;10.892;2022-12-20T00:06:46;36.47;;;21.17;;
33740;SDS011;20065;48.380;10.892;2022-12-20T00:09:33;37.53;;;21.60;;
33740;SDS011;20065;48.380;10.892;2022-12-20T00:12:19;38.03;;;22.13;;
33740;SDS011;20065;48.380;10.892;2022-12-20T00:15:08;32.83;;;21.23;;
33740;SDS011;20065;48.380;10.892;2022-12-20T00:17:54;32.65;;;20.50;;
33740;SDS011;20065;48.380;10.892;2022-12-20T00:20:40;34.70;;;19.88;;
33740;SDS011;20065;48.380;10.892;2022-12-20T00:23:27;34.70;;;20.63;;
33740;SDS011;20065;48.380;10.892;2022-12-20T00:26:15;30.08;;;19.90;;
33740;SDS011;20065;48.380;10.892;2022-12-20T00:29:04;34.92;;;21.13;;
33740;SDS011;20065;48.380;10.892;2022-12-20T00:31:51;42.33;;;22.67;;
33740;SDS011;20065;48.380;10.892;2022-12-20T00:34:37;40.88;;;21.35;;
33740;SDS011;20065;48.380;10.892;2022-12-20T00:37:23;33.15;;;20.65;;
33740;SDS011;20065;48.380;10.892;2022-12-20T00:40:09;34.38;;;21.80;;
33740;SDS011;20065;48.380;10.892;2022-12-20T00:42:56;34.22;;;21.40;;
33740;SDS011;20065;48.380;10.892;2022-12-20T00:45:42;37.67;;;22.45;;
33740;SDS011;20065;48.380;10.892;2022-12-20T00:48:29;35.55;;;21.67;;
33740;SDS011;20065;48.380;10.892;2022-12-20T00:51:17;35.17;;;21.85;;
33740;SDS011;20065;48.380;10.892;2022-12-20T00:54:05;34.53;;;20.67;;
33740;SDS011;20065;48.380;10.892;2022-12-20T00:56:51;37.03;;;21.67;;
33740;SDS011;20065;48.380;10.892;2022-12-20T00:59:37;36.60;;;20.30;;
33740;SDS011;20065;48.380;10.892;2022-12-20T01:02:23;36.13;;;21.52;;
33740;SDS011;20065;48.380;10.892;2022-12-20T01:05:10;34.97;;;20.48;;
33740;SDS011;20065;48.380;10.892;2022-12-20T01:07:56;30.65;;;20.80;;
33740;SDS011;20065;48.380;10.892;2022-12-20T01:10:43;42.55;;;22.83;;
33740;SDS011;20065;48.380;10.892;2022-12-20T01:13:29;39.60;;;21.73;;
33740;SDS011;20065;48.380;10.892;2022-12-20T01:16:27;37.70;;;21.33;;
33740;SDS011;20065;48.380;10.892;2022-12-20T01:19:21;36.20;;;20.95;;
33740;SDS011;20065;48.380;10.892;2022-12-20T01:22:07;32.90;;;18.30;;
33740;SDS011;20065;48.380;10.892;2022-12-20T01:24:53;33.22;;;20.30;;
33740;SDS011;20065;48.380;10.892;2022-12-20T01:27:39;37.50;;;20.02;;
33740;SDS011;20065;48.380;10.892;2022-12-20T01:30:25;37.05;;;20.63;;
33740;SDS011;20065;48.380;10.892;2022-12-20T01:33:12;37.50;;;20.50;;
33740;SDS011;20065;48.380;10.892;2022-12-20T01:36:00;34.38;;;21.40;;
33740;SDS011;20065;48.380;10.892;2022-12-20T01:38:48;33.40;;;20.52;;
33740;SDS011;20065;48.380;10.892;2022-12-20T01:41:34;31.13;;;20.00;;
33740;SDS011;20065;48.380;10.892;2022-12-20T01:47:08;32.80;;;20.52;;
33740;SDS011;20065;48.380;10.892;2022-12-20T01:49:57;32.00;;;19.25;;
33740;SDS011;20065;48.380;10.892;2022-12-20T01:52:45;33.70;;;20.60;;
33740;SDS011;20065;48.380;10.892;2022-12-20T01:55:32;34.85;;;21.60;;
33740;SDS011;20065;48.380;10.892;2022-12-20T01:58:20;34.28;;;19.70;;
33740;SDS011;20065;48.380;10.892;2022-12-20T02:01:06;38.35;;;19.75;;
33740;SDS011;20065;48.380;10.892;2022-12-20T02:03:53;36.05;;;21.52;;
33740;SDS011;20065;48.380;10.892;2022-12-20T02:06:40;36.17;;;20.10;;
33740;SDS011;20065;48.380;10.892;2022-12-20T02:09:26;36.47;;;20.25;;
33740;SDS011;20065;48.380;10.892;2022-12-20T02:12:14;32.65;;;20.70;;
33740;SDS011;20065;48.380;10.892;2022-12-20T02:30:18;30.15;;;18.17;;
33740;SDS011;20065;48.380;10.892;2022-12-20T02:33:10;34.67;;;20.45;;
33740;SDS011;20065;48.380;10.892;2022-12-20T02:35:58;31.02;;;18.17;;
33740;SDS011;20065;48.380;10.892;2022-12-20T02:38:44;38.75;;;20.27;;
33740;SDS011;20065;48.380;10.892;2022-12-20T02:41:38;30.25;;;18.48;;
33740;SDS011;20065;48.380;10.892;2022-12-20T02:44:28;24.80;;;15.50;;
33740;SDS011;20065;48.380;10.892;2022-12-20T02:47:37;29.17;;;15.70;;
33740;SDS011;20065;48.380;10.892;2022-12-20T02:50:29;22.20;;;15.00;;
33740;SDS011;20065;48.380;10.892;2022-12-20T02:53:19;26.90;;;17.08;;
33740;SDS011;20065;48.380;10.892;2022-12-20T02:59:25;30.35;;;19.20;;
33740;SDS011;20065;48.380;10.892;2022-12-20T03:02:24;26.77;;;16.75;;
33740;SDS011;20065;48.380;10.892;2022-12-20T03:05:11;28.00;;;16.70;;
33740;SDS011;20065;48.380;10.892;2022-12-20T03:07:57;28.80;;;16.77;;
33740;SDS011;20065;48.380;10.892;2022-12-20T03:10:44;28.52;;;15.48;;
33740;SDS011;20065;48.380;10.892;2022-12-20T03:13:30;25.92;;;16.30;;
33740;SDS011;20065;48.380;10.892;2022-12-20T03:16:24;27.10;;;15.90;;
33740;SDS011;20065;48.380;10.892;2022-12-20T03:19:10;24.75;;;14.10;;
33740;SDS011;20065;48.380;10.892;2022-12-20T03:21:56;27.50;;;15.27;;
33740;SDS011;20065;48.380;10.892;2022-12-20T03:24:43;24.90;;;14.98;;
33740;SDS011;20065;48.380;10.892;2022-12-20T03:27:31;25.98;;;16.00;;
33740;SDS011;20065;48.380;10.892;2022-12-20T03:30:19;27.23;;;16.38;;
33740;SDS011;20065;48.380;10.892;2022-12-20T03:33:05;29.08;;;15.13;;
33740;SDS011;20065;48.380;10.892;2022-12-20T03:35:53;27.25;;;17.05;;
33740;SDS011;20065;48.380;10.892;2022-12-20T03:38:40;28.77;;;15.88;;
33740;SDS011;20065;48.380;10.892;2022-12-20T03:41:27;24.50;;;15.48;;
33740;SDS011;20065;48.380;10.892;2022-12-20T03:44:13;27.70;;;16.00;;
33740;SDS011;20065;48.380;10.892;2022-12-20T03:47:00;26.67;;;15.43;;
33740;SDS011;20065;48.380;10.892;2022-12-20T03:49:46;27.58;;;16.45;;
33740;SDS011;20065;48.380;10.892;2022-12-20T03:52:32;30.00;;;15.18;;
33740;SDS011;20065;48.380;10.892;2022-12-20T03:55:19;24.65;;;14.85;;
33740;SDS011;20065;48.380;10.892;2022-12-20T03:58:05;22.92;;;13.65;;
33740;SDS011;20065;48.380;10.892;2022-12-20T04:00:56;22.45;;;14.48;;
33740;SDS011;20065;48.380;10.892;2022-12-20T04:03:56;25.23;;;16.95;;
33740;SDS011;20065;48.380;10.892;2022-12-20T04:06:43;26.73;;;14.93;;
33740;SDS011;20065;48.380;10.892;2022-12-20T04:09:29;23.70;;;14.10;;
33740;SDS011;20065;48.380;10.892;2022-12-20T04:12:22;23.38;;;14.40;;
33740;SDS011;20065;48.380;10.892;2022-12-20T04:15:09;20.50;;;13.45;;
33740;SDS011;20065;48.380;10.892;2022-12-20T04:17:58;19.17;;;13.60;;
33740;SDS011;20065;48.380;10.892;2022-12-20T04:20:45;21.95;;;12.98;;
33740;SDS011;20065;48.380;10.892;2022-12-20T04:23:42;21.48;;;12.57;;
33740;SDS011;20065;48.380;10.892;2022-12-20T04:26:29;22.65;;;10.65;;
33740;SDS011;20065;48.380;10.892;2022-12-20T04:29:17;17.50;;;11.38;;
33740;SDS011;20065;48.380;10.892;2022-12-20T04:32:04;19.73;;;11.45;;
33740;SDS011;20065;48.380;10.892;2022-12-20T04:34:51;19.38;;;10.70;;
33740;SDS011;20065;48.380;10.892;2022-12-20T04:37:38;19.00;;;10.65;;
33740;SDS011;20065;48.380;10.892;2022-12-20T04:40:25;16.58;;;11.27;;
33740;SDS011;20065;48.380;10.892;2022-12-20T04:43:15;15.70;;;9.90;;
33740;SDS011;20065;48.380;10.892;2022-12-20T04:46:01;16.75;;;10.55;;
33740;SDS011;20065;48.380;10.892;2022-12-20T04:48:48;23.35;;;12.63;;
33740;SDS011;20065;48.380;10.892;2022-12-20T04:51:34;15.88;;;10.68;;
33740;SDS011;20065;48.380;10.892;2022-12-20T04:54:20;19.58;;;11.68;;
33740;SDS011;20065;48.380;10.892;2022-12-20T04:57:18;18.33;;;10.65;;
33740;SDS011;20065;48.380;10.892;2022-12-20T05:00:05;15.05;;;9.85;;
33740;SDS011;20065;48.380;10.892;2022-12-20T05:02:51;18.33;;;11.10;;
33740;SDS011;20065;48.380;10.892;2022-12-20T05:05:39;16.52;;;9.15;;
33740;SDS011;20065;48.380;10.892;2022-12-20T05:08:26;11.15;;;7.10;;
33740;SDS011;20065;48.380;10.892;2022-12-20T05:11:12;14.80;;;7.78;;
33740;SDS011;20065;48.380;10.892;2022-12-20T05:13:59;14.77;;;9.27;;
33740;SDS011;20065;48.380;10.892;2022-12-20T05:16:45;13.13;;;9.27;;
33740;SDS011;20065;48.380;10.892;2022-12-20T05:19:31;15.98;;;9.77;;
33740;SDS011;20065;48.380;10.892;2022-12-20T05:22:18;15.20;;;8.65;;
33740;SDS011;20065;48.380;10.892;2022-12-20T05:25:29;12.25;;;8.35;;
33740;SDS011;20065;48.380;10.892;2022-12-20T05:28:34;17.90;;;8.40;;
33740;SDS011;20065;48.380;10.892;2022-12-20T05:31:21;17.77;;;8.95;;
33740;SDS011;20065;48.380;10.892;2022-12-20T05:34:07;13.80;;;8.98;;
33740;SDS011;20065;48.380;10.892;2022-12-20T05:36:55;15.35;;;8.85;;
33740;SDS011;20065;48.380;10.892;2022-12-20T05:39:45;16.17;;;9.02;;
33740;SDS011;20065;48.380;10.892;2022-12-20T05:42:37;17.05;;;8.70;;
33740;SDS011;20065;48.380;10.892;2022-12-20T05:45:23;16.25;;;8.70;;
33740;SDS011;20065;48.380;10.892;2022-12-20T05:48:17;19.70;;;11.25;;
33740;SDS011;20065;48.380;10.892;2022-12-20T05:51:07;17.65;;;10.27;;
33740;SDS011;20065;48.380;10.892;2022-12-20T05:54:07;15.75;;;9.40;;
33740;SDS011;20065;48.380;10.892;2022-12-20T05:57:03;20.63;;;11.35;;
33740;SDS011;20065;48.380;10.892;2022-12-20T05:59:58;14.55;;;9.80;;
33740;SDS011;20065;48.380;10.892;2022-12-20T06:02:44;20.92;;;9.95;;
33740;SDS011;20065;48.380;10.892;2022-12-20T06:05:31;17.30;;;11.25;;
33740;SDS011;20065;48.380;10.892;2022-12-20T06:08:19;15.35;;;9.95;;
33740;SDS011;20065;48.380;10.892;2022-12-20T06:11:06;19.60;;;10.60;;
33740;SDS011;20065;48.380;10.892;2022-12-20T06:14:01;16.75;;;9.55;;
33740;SDS011;20065;48.380;10.892;2022-12-20T06:16:47;17.17;;;9.93;;
33740;SDS011;20065;48.380;10.892;2022-12-20T06:19:35;16.90;;;9.75;;
33740;SDS011;20065;48.380;10.892;2022-12-20T06:22:22;18.98;;;9.50;;
33740;SDS011;20065;48.380;10.892;2022-12-20T06:25:12;15.70;;;9.70;;
33740;SDS011;20065;48.380;10.892;2022-12-20T06:28:00;15.32;;;9.10;;
33740;SDS011;20065;48.380;10.892;2022-12-20T06:30:53;12.77;;;7.88;;
33740;SDS011;20065;48.380;10.892;2022-12-20T06:34:00;12.48;;;7.60;;
33740;SDS011;20065;48.380;10.892;2022-12-20T06:36:51;10.82;;;7.32;;
33740;SDS011;20065;48.380;10.892;2022-12-20T06:39:41;14.50;;;8.15;;
33740;SDS011;20065;48.380;10.892;2022-12-20T06:42:28;14.65;;;7.47;;
33740;SDS011;20065;48.380;10.892;2022-12-20T06:45:14;10.60;;;6.60;;
33740;SDS011;20065;48.380;10.892;2022-12-20T06:48:01;10.95;;;6.88;;
33740;SDS011;20065;48.380;10.892;2022-12-20T06:50:50;11.65;;;7.28;;
33740;SDS011;20065;48.380;10.892;2022-12-20T06:53:38;11.23;;;7.20;;
33740;SDS011;20065;48.380;10.892;2022-12-20T06:56:24;15.07;;;8.27;;
33740;SDS011;20065;48.380;10.892;2022-12-20T06:59:11;18.80;;;8.73;;
33740;SDS011;20065;48.380;10.892;2022-12-20T07:01:58;17.25;;;11.05;;
33740;SDS011;20065;48.380;10.892;2022-12-20T07:04:44;13.65;;;9.20;;
33740;SDS011;20065;48.380;10.892;2022-12-20T07:07:30;15.55;;;9.20;;
33740;SDS011;20065;48.380;10.892;2022-12-20T07:10:16;17.02;;;10.20;;
33740;SDS011;20065;48.380;10.892;2022-12-20T07:13:03;17.63;;;9.77;;
33740;SDS011;20065;48.380;10.892;2022-12-20T07:15:55;17.40;;;9.02;;
33740;SDS011;20065;48.380;10.892;2022-12-20T07:18:48;12.90;;;8.20;;
33740;SDS011;20065;48.380;10.892;2022-12-20T07:21:37;12.15;;;7.53;;
33740;SDS011;20065;48.380;10.892;2022-12-20T07:24:24;19.67;;;11.02;;
33740;SDS011;20065;48.380;10.892;2022-12-20T07:27:10;19.95;;;11.15;;
33740;SDS011;20065;48.380;10.892;2022-12-20T07:29:56;22.52;;;11.90;;
33740;SDS011;20065;48.380;10.892;2022-12-20T07:32:42;13.70;;;7.75;;
33740;SDS011;20065;48.380;10.892;2022-12-20T07:35:28;14.82;;;8.73;;
33740;SDS011;20065;48.380;10.892;2022-12-20T07:38:15;19.00;;;10.32;;
33740;SDS011;20065;48.380;10.892;2022-12-20T07:41:08;18.38;;;10.68;;
33740;SDS011;20065;48.380;10.892;2022-12-20T07:43:55;21.85;;;9.70;;
33740;SDS011;20065;48.380;10.892;2022-12-20T07:46:43;16.75;;;9.85;;
33740;SDS011;20065;48.380;10.892;2022-12-20T07:49:30;18.83;;;8.55;;
33740;SDS011;20065;48.380;10.892;2022-12-20T07:52:17;16.90;;;9.85;;
33740;SDS011;20065;48.380;10.892;2022-12-20T07:55:08;13.65;;;8.18;;
33740;SDS011;20065;48.380;10.892;2022-12-20T07:57:57;11.73;;;7.85;;
33740;SDS011;20065;48.380;10.892;2022-12-20T08:00:49;13.10;;;8.35;;
33740;SDS011;20065;48.380;10.892;2022-12-20T08:03:37;12.48;;;6.55;;
33740;SDS011;20065;48.380;10.892;2022-12-20T08:06:28;17.48;;;9.20;;
33740;SDS011;20065;48.380;10.892;2022-12-20T08:09:15;13.52;;;8.90;;
33740;SDS011;20065;48.380;10.892;2022-12-20T08:12:04;12.63;;;7.57;;
33740;SDS011;20065;48.380;10.892;2022-12-20T08:14:54;9.75;;;7.82;;
33740;SDS011;20065;48.380;10.892;2022-12-20T08:17:41;14.07;;;8.00;;
33740;SDS011;20065;48.380;10.892;2022-12-20T08:20:28;11.45;;;7.75;;
33740;SDS011;20065;48.380;10.892;2022-12-20T08:23:14;11.20;;;7.32;;
33740;SDS011;20065;48.380;10.892;2022-12-20T08:26:00;11.98;;;7.95;;
33740;SDS011;20065;48.380;10.892;2022-12-20T08:28:47;16.20;;;9.15;;
33740;SDS011;20065;48.380;10.892;2022-12-20T08:31:37;13.55;;;9.20;;
33740;SDS011;20065;48.380;10.892;2022-12-20T08:34:24;13.23;;;8.60;;
33740;SDS011;20065;48.380;10.892;2022-12-20T08:37:10;14.27;;;9.57;;
33740;SDS011;20065;48.380;10.892;2022-12-20T08:39:56;13.63;;;9.30;;
33740;SDS011;20065;48.380;10.892;2022-12-20T08:42:43;18.45;;;10.35;;
33740;SDS011;20065;48.380;10.892;2022-12-20T08:45:29;17.45;;;10.48;;
33740;SDS011;20065;48.380;10.892;2022-12-20T08:48:15;20.52;;;10.45;;
33740;SDS011;20065;48.380;10.892;2022-12-20T08:51:03;21.45;;;10.98;;
33740;SDS011;20065;48.380;10.892;2022-12-20T08:53:51;21.20;;;10.70;;
33740;SDS011;20065;48.380;10.892;2022-12-20T08:56:37;17.15;;;11.55;;
33740;SDS011;20065;48.380;10.892;2022-12-20T08:59:24;20.60;;;11.05;;
33740;SDS011;20065;48.380;10.892;2022-12-20T09:02:11;18.23;;;11.63;;
33740;SDS011;20065;48.380;10.892;2022-12-20T09:04:57;18.38;;;10.77;;
33740;SDS011;20065;48.380;10.892;2022-12-20T09:07:43;19.27;;;11.55;;
33740;SDS011;20065;48.380;10.892;2022-12-20T09:10:29;19.48;;;10.45;;
33740;SDS011;20065;48.380;10.892;2022-12-20T09:13:15;16.45;;;11.32;;
33740;SDS011;20065;48.380;10.892;2022-12-20T09:16:02;16.88;;;9.50;;
33740;SDS011;20065;48.380;10.892;2022-12-20T09:18:50;19.83;;;11.25;;
33740;SDS011;20065;48.380;10.892;2022-12-20T09:21:37;18.98;;;10.70;;
33740;SDS011;20065;48.380;10.892;2022-12-20T09:24:23;21.42;;;12.32;;
33740;SDS011;20065;48.380;10.892;2022-12-20T09:27:09;43.75;;;23.13;;
33740;SDS011;20065;48.380;10.892;2022-12-20T09:29:56;42.03;;;23.13;;
33740;SDS011;20065;48.380;10.892;2022-12-20T09:32:42;35.53;;;20.60;;
33740;SDS011;20065;48.380;10.892;2022-12-20T09:35:28;29.38;;;17.45;;
33740;SDS011;20065;48.380;10.892;2022-12-20T09:38:14;20.05;;;12.65;;
33740;SDS011;20065;48.380;10.892;2022-12-20T09:41:02;15.57;;;10.98;;
33740;SDS011;20065;48.380;10.892;2022-12-20T09:43:49;18.45;;;11.70;;
33740;SDS011;20065;48.380;10.892;2022-12-20T09:46:37;17.67;;;11.90;;
33740;SDS011;20065;48.380;10.892;2022-12-20T09:49:30;16.80;;;11.70;;
33740;SDS011;20065;48.380;10.892;2022-12-20T10:01:26;19.88;;;14.45;;
33740;SDS011;20065;48.380;10.892;2022-12-20T10:04:22;21.98;;;14.38;;
33740;SDS011;20065;48.380;10.892;2022-12-20T10:10:41;28.42;;;16.45;;
33740;SDS011;20065;48.380;10.892;2022-12-20T10:13:51;29.25;;;17.55;;
33740;SDS011;20065;48.380;10.892;2022-12-20T10:17:11;31.38;;;17.52;;
33740;SDS011;20065;48.380;10.892;2022-12-20T10:20:32;33.45;;;21.90;;
33740;SDS011;20065;48.380;10.892;2022-12-20T10:23:45;28.40;;;19.33;;
33740;SDS011;20065;48.380;10.892;2022-12-20T10:26:47;44.63;;;25.10;;
33740;SDS011;20065;48.380;10.892;2022-12-20T10:29:35;28.15;;;16.73;;
33740;SDS011;20065;48.380;10.892;2022-12-20T10:32:22;30.83;;;17.05;;
33740;SDS011;20065;48.380;10.892;2022-12-20T10:37:56;22.08;;;14.07;;
33740;SDS011;20065;48.380;10.892;2022-12-20T10:40:43;24.17;;;14.15;;
33740;SDS011;20065;48.380;10.892;2022-12-20T10:43:44;25.67;;;14.45;;
33740;SDS011;20065;48.380;10.892;2022-12-20T10:46:41;21.10;;;12.48;;
33740;SDS011;20065;48.380;10.892;2022-12-20T10:52:21;21.27;;;13.73;;
33740;SDS011;20065;48.380;10.892;2022-12-20T11:01:13;23.35;;;14.30;;
33740;SDS011;20065;48.380;10.892;2022-12-20T11:04:06;18.90;;;11.70;;
33740;SDS011;20065;48.380;10.892;2022-12-20T11:07:22;23.73;;;13.82;;
33740;SDS011;20065;48.380;10.892;2022-12-20T11:10:21;19.48;;;13.32;;
33740;SDS011;20065;48.380;10.892;2022-12-20T11:13:22;22.45;;;13.00;;
33740;SDS011;20065;48.380;10.892;2022-12-20T11:16:28;21.08;;;13.20;;
33740;SDS011;20065;48.380;10.892;2022-12-20T11:26:05;25.75;;;15.00;;
33740;SDS011;20065;48.380;10.892;2022-12-20T11:38:58;25.88;;;13.40;;
33740;SDS011;20065;48.380;10.892;2022-12-20T11:41:49;19.80;;;12.18;;
33740;SDS011;20065;48.380;10.892;2022-12-20T11:45:06;18.95;;;11.50;;
33740;SDS011;20065;48.380;10.892;2022-12-20T11:51:19;15.20;;;10.63;;
33740;SDS011;20065;48.380;10.892;2022-12-20T11:54:09;16.52;;;11.00;;
33740;SDS011;20065;48.380;10.892;2022-12-20T11:57:15;15.77;;;9.90;;
33740;SDS011;20065;48.380;10.892;2022-12-20T12:00:13;19.98;;;11.63;;
33740;SDS011;20065;48.380;10.892;2022-12-20T12:03:02;19.65;;;10.35;;
33740;SDS011;20065;48.380;10.892;2022-12-20T12:06:07;18.40;;;11.60;;
33740;SDS011;20065;48.380;10.892;2022-12-20T12:09:05;18.48;;;9.68;;
33740;SDS011;20065;48.380;10.892;2022-12-20T12:12:11;17.40;;;11.55;;
33740;SDS011;20065;48.380;10.892;2022-12-20T12:15:27;20.90;;;12.23;;
33740;SDS011;20065;48.380;10.892;2022-12-20T12:18:50;23.35;;;14.15;;
33740;SDS011;20065;48.380;10.892;2022-12-20T12:21:38;30.65;;;17.40;;
33740;SDS011;20065;48.380;10.892;2022-12-20T12:24:37;20.05;;;10.88;;
33740;SDS011;20065;48.380;10.892;2022-12-20T12:27:28;15.57;;;11.07;;
33740;SDS011;20065;48.380;10.892;2022-12-20T12:30:14;19.67;;;10.57;;
33740;SDS011;20065;48.380;10.892;2022-12-20T12:33:02;16.92;;;10.13;;
33740;SDS011;20065;48.380;10.892;2022-12-20T12:39:19;14.85;;;10.05;;
33740;SDS011;20065;48.380;10.892;2022-12-20T12:45:31;15.80;;;10.63;;
33740;SDS011;20065;48.380;10.892;2022-12-20T12:48:28;17.75;;;11.10;;
33740;SDS011;20065;48.380;10.892;2022-12-20T12:51:41;15.90;;;10.70;;
33740;SDS011;20065;48.380;10.892;2022-12-20T12:54:35;15.98;;;9.70;;
33740;SDS011;20065;48.380;10.892;2022-12-20T12:57:24;18.60;;;10.90;;
33740;SDS011;20065;48.380;10.892;2022-12-20T13:06:42;15.02;;;8.35;;
33740;SDS011;20065;48.380;10.892;2022-12-20T13:09:38;15.32;;;8.18;;
33740;SDS011;20065;48.380;10.892;2022-12-20T13:13:08;14.07;;;9.35;;
33740;SDS011;20065;48.380;10.892;2022-12-20T13:16:03;14.80;;;8.43;;
33740;SDS011;20065;48.380;10.892;2022-12-20T13:19:01;14.32;;;8.48;;
33740;SDS011;20065;48.380;10.892;2022-12-20T13:24:54;16.13;;;7.53;;
33740;SDS011;20065;48.380;10.892;2022-12-20T13:27:42;15.00;;;8.50;;
33740;SDS011;20065;48.380;10.892;2022-12-20T13:30:28;13.55;;;8.80;;
33740;SDS011;20065;48.380;10.892;2022-12-20T13:33:16;15.45;;;8.35;;
33740;SDS011;20065;48.380;10.892;2022-12-20T13:39:39;13.65;;;8.27;;
33740;SDS011;20065;48.380;10.892;2022-12-20T13:48:05;13.18;;;7.53;;
33740;SDS011;20065;48.380;10.892;2022-12-20T13:50:56;14.60;;;9.38;;
33740;SDS011;20065;48.380;10.892;2022-12-20T13:53:56;15.55;;;9.38;;
33740;SDS011;20065;48.380;10.892;2022-12-20T13:56:48;18.83;;;11.60;;
33740;SDS011;20065;48.380;10.892;2022-12-20T13:59:35;20.95;;;11.30;;
33740;SDS011;20065;48.380;10.892;2022-12-20T14:02:28;19.98;;;11.15;;
33740;SDS011;20065;48.380;10.892;2022-12-20T14:05:20;15.98;;;9.85;;
33740;SDS011;20065;48.380;10.892;2022-12-20T14:08:15;16.52;;;9.20;;
33740;SDS011;20065;48.380;10.892;2022-12-20T14:14:03;19.50;;;11.00;;
33740;SDS011;20065;48.380;10.892;2022-12-20T14:17:13;21.88;;;12.63;;
33740;SDS011;20065;48.380;10.892;2022-12-20T14:25:56;23.70;;;15.32;;
33740;SDS011;20065;48.380;10.892;2022-12-20T14:28:48;22.60;;;13.90;;
33740;SDS011;20065;48.380;10.892;2022-12-20T14:31:37;24.15;;;13.82;;
33740;SDS011;20065;48.380;10.892;2022-12-20T14:34:27;23.42;;;14.27;;
33740;SDS011;20065;48.380;10.892;2022-12-20T14:37:17;19.77;;;13.13;;
33740;SDS011;20065;48.380;10.892;2022-12-20T14:40:20;19.67;;;12.25;;
33740;SDS011;20065;48.380;10.892;2022-12-20T14:43:15;19.13;;;13.60;;
33740;SDS011;20065;48.380;10.892;2022-12-20T14:46:16;19.80;;;13.32;;
33740;SDS011;20065;48.380;10.892;2022-12-20T14:49:11;27.98;;;15.63;;
33740;SDS011;20065;48.380;10.892;2022-12-20T14:57:48;29.50;;;15.38;;
33740;SDS011;20065;48.380;10.892;2022-12-20T15:00:36;26.67;;;14.15;;
33740;SDS011;20065;48.380;10.892;2022-12-20T15:03:25;22.63;;;15.52;;
33740;SDS011;20065;48.380;10.892;2022-12-20T15:06:32;25.42;;;15.43;;
33740;SDS011;20065;48.380;10.892;2022-12-20T15:09:19;32.22;;;16.95;;
33740;SDS011;20065;48.380;10.892;2022-12-20T15:12:06;25.27;;;16.10;;
33740;SDS011;20065;48.380;10.892;2022-12-20T15:14:53;28.33;;;17.40;;
33740;SDS011;20065;48.380;10.892;2022-12-20T15:17:40;27.80;;;15.48;;
33740;SDS011;20065;48.380;10.892;2022-12-20T15:20:26;32.70;;;16.10;;
33740;SDS011;20065;48.380;10.892;2022-12-20T15:23:19;25.42;;;15.85;;
33740;SDS011;20065;48.380;10.892;2022-12-20T15:26:07;23.67;;;14.10;;
33740;SDS011;20065;48.380;10.892;2022-12-20T15:28:58;27.05;;;16.00;;
33740;SDS011;20065;48.380;10.892;2022-12-20T15:31:45;23.08;;;15.07;;
33740;SDS011;20065;48.380;10.892;2022-12-20T15:37:24;22.73;;;14.82;;
33740;SDS011;20065;48.380;10.892;2022-12-20T15:40:14;22.48;;;12.13;;
33740;SDS011;20065;48.380;10.892;2022-12-20T15:43:00;17.10;;;12.25;;
33740;SDS011;20065;48.380;10.892;2022-12-20T15:45:47;23.30;;;12.35;;
33740;SDS011;20065;48.380;10.892;2022-12-20T15:48:38;23.88;;;12.65;;
33740;SDS011;20065;48.380;10.892;2022-12-20T15:57:12;34.92;;;17.30;;
33740;SDS011;20065;48.380;10.892;2022-12-20T15:59:59;24.40;;;16.48;;
33740;SDS011;20065;48.380;10.892;2022-12-20T16:02:45;29.75;;;16.30;;
33740;SDS011;20065;48.380;10.892;2022-12-20T16:05:33;23.48;;;13.82;;
33740;SDS011;20065;48.380;10.892;2022-12-20T16:08:22;23.67;;;16.00;;
33740;SDS011;20065;48.380;10.892;2022-12-20T16:12:07;28.60;;;17.85;;
33740;SDS011;20065;48.380;10.892;2022-12-20T16:18:06;31.00;;;16.85;;
33740;SDS011;20065;48.380;10.892;2022-12-20T16:20:52;24.33;;;16.35;;
33740;SDS011;20065;48.380;10.892;2022-12-20T16:23:41;28.55;;;17.25;;
33740;SDS011;20065;48.380;10.892;2022-12-20T16:26:27;28.38;;;17.05;;
33740;SDS011;20065;48.380;10.892;2022-12-20T16:29:13;29.80;;;20.30;;
33740;SDS011;20065;48.380;10.892;2022-12-20T16:32:00;39.70;;;23.83;;
33740;SDS011;20065;48.380;10.892;2022-12-20T16:34:49;37.10;;;20.42;;
33740;SDS011;20065;48.380;10.892;2022-12-20T16:37:36;31.65;;;19.40;;
33740;SDS011;20065;48.380;10.892;2022-12-20T16:40:23;26.42;;;16.88;;
33740;SDS011;20065;48.380;10.892;2022-12-20T16:43:12;28.55;;;17.45;;
33740;SDS011;20065;48.380;10.892;2022-12-20T16:45:59;35.92;;;21.48;;
33740;SDS011;20065;48.380;10.892;2022-12-20T16:48:45;25.90;;;17.23;;
33740;SDS011;20065;48.380;10.892;2022-12-20T16:51:33;23.27;;;15.35;;
33740;SDS011;20065;48.380;10.892;2022-12-20T16:54:21;18.58;;;12.90;;
33740;SDS011;20065;48.380;10.892;2022-12-20T16:57:07;20.25;;;13.23;;
33740;SDS011;20065;48.380;10.892;2022-12-20T16:59:55;28.05;;;14.02;;
33740;SDS011;20065;48.380;10.892;2022-12-20T17:02:41;20.23;;;12.60;;
33740;SDS011;20065;48.380;10.892;2022-12-20T17:05:30;22.48;;;14.35;;
33740;SDS011;20065;48.380;10.892;2022-12-20T17:08:17;26.25;;;13.60;;
33740;SDS011;20065;48.380;10.892;2022-12-20T17:11:08;19.33;;;13.27;;
33740;SDS011;20065;48.380;10.892;2022-12-20T17:13:57;25.67;;;14.65;;
33740;SDS011;20065;48.380;10.892;2022-12-20T17:16:44;27.40;;;15.65;;
33740;SDS011;20065;48.380;10.892;2022-12-20T17:19:30;22.98;;;13.50;;
33740;SDS011;20065;48.380;10.892;2022-12-20T17:22:16;22.08;;;13.50;;
33740;SDS011;20065;48.380;10.892;2022-12-20T17:28:18;23.77;;;14.40;;
33740;SDS011;20065;48.380;10.892;2022-12-20T17:31:26;25.95;;;14.77;;
33740;SDS011;20065;48.380;10.892;2022-12-20T17:34:25;23.23;;;14.82;;
33740;SDS011;20065;48.380;10.892;2022-12-20T17:37:12;29.70;;;15.23;;
33740;SDS011;20065;48.380;10.892;2022-12-20T17:39:58;25.48;;;15.43;;
33740;SDS011;20065;48.380;10.892;2022-12-20T17:42:51;24.05;;;15.38;;
33740;SDS011;20065;48.380;10.892;2022-12-20T17:45:37;25.98;;;15.60;;
33740;SDS011;20065;48.380;10.892;2022-12-20T17:48:24;29.33;;;16.52;;
33740;SDS011;20065;48.380;10.892;2022-12-20T17:51:14;27.80;;;15.55;;
33740;SDS011;20065;48.380;10.892;2022-12-20T17:54:02;23.95;;;16.67;;
33740;SDS011;20065;48.380;10.892;2022-12-20T17:56:49;26.38;;;16.83;;
33740;SDS011;20065;48.380;10.892;2022-12-20T17:59:35;23.70;;;15.18;;
33740;SDS011;20065;48.380;10.892;2022-12-20T18:02:23;25.20;;;15.60;;
33740;SDS011;20065;48.380;10.892;2022-12-20T18:05:10;27.70;;;17.83;;
33740;SDS011;20065;48.380;10.892;2022-12-20T18:07:57;28.35;;;15.80;;
33740;SDS011;20065;48.380;10.892;2022-12-20T18:10:43;23.73;;;13.88;;
33740;SDS011;20065;48.380;10.892;2022-12-20T18:13:30;24.80;;;15.20;;
33740;SDS011;20065;48.380;10.892;2022-12-20T18:16:18;25.65;;;15.70;;
33740;SDS011;20065;48.380;10.892;2022-12-20T18:19:16;38.10;;;20.65;;
33740;SDS011;20065;48.380;10.892;2022-12-20T18:22:03;29.42;;;16.58;;
33740;SDS011;20065;48.380;10.892;2022-12-20T18:24:49;24.95;;;15.52;;